Time;durP1;ratioP1;P1;durP2;ratioP2;P2;SDS_P1;SDS_P2;PMS_P1;PMS_P2;Temp;Humidity;BMP_temperature;BMP_pressure;BME280_temperature;BME280_humidity;BME280_pressure;Samples;Min_cycle;Max_cycle;Signal;HPM_P1;HPM_P2
2022/08/02 00:00:13;;;;;;;19.80;4.50;;;26.50;67.70;;;;;;4991595;28;20034;-62
2022/08/02 00:02:42;;;;;;;29.65;5.72;;;26.50;67.80;;;;;;4985591;28;20419;-62
2022/08/02 00:05:08;;;;;;;35.72;5.72;;;26.50;67.80;;;;;;5001852;28;20052;-62
2022/08/02 00:07:33;;;;;;;25.48;5.18;;;26.30;67.80;;;;;;4986754;28;20046;-62
2022/08/02 00:09:59;;;;;;;19.15;4.90;;;26.40;67.80;;;;;;5007664;28;20026;-62
2022/08/02 00:12:24;;;;;;;27.20;5.75;;;26.40;67.80;;;;;;5006964;28;20126;-63
2022/08/02 00:14:50;;;;;;;17.35;4.70;;;26.40;67.90;;;;;;5005274;28;20050;-62
2022/08/02 00:17:15;;;;;;;18.42;4.68;;;26.40;68.50;;;;;;4986033;28;20114;-62
2022/08/02 00:19:41;;;;;;;13.80;4.35;;;26.40;68.00;;;;;;4988290;28;20489;-62
2022/08/02 00:22:07;;;;;;;13.38;4.53;;;26.30;68.10;;;;;;5005640;28;20075;-62
2022/08/02 00:24:32;;;;;;;17.95;5.00;;;26.30;68.10;;;;;;5006666;28;20034;-62
2022/08/02 00:26:58;;;;;;;11.95;4.30;;;26.30;68.30;;;;;;5003421;28;20030;-62
2022/08/02 00:29:24;;;;;;;11.27;4.20;;;26.30;68.30;;;;;;5004704;28;20030;-62
2022/08/02 00:31:49;;;;;;;8.75;4.22;;;26.20;68.30;;;;;;5002149;28;20034;-62
2022/08/02 00:34:15;;;;;;;8.15;3.88;;;26.20;68.30;;;;;;5004962;28;20470;-62
2022/08/02 00:36:40;;;;;;;12.02;3.90;;;26.20;68.40;;;;;;5006418;28;20129;-62
2022/08/02 00:39:06;;;;;;;10.75;4.05;;;26.20;68.50;;;;;;4988231;28;20576;-62
2022/08/02 00:41:31;;;;;;;8.15;3.67;;;26.20;68.60;;;;;;5005275;28;20529;-62
2022/08/02 00:43:56;;;;;;;14.48;4.80;;;26.20;68.60;;;;;;5001647;28;20065;-62
2022/08/02 00:46:22;;;;;;;7.28;4.00;;;26.10;68.60;;;;;;5005120;28;20030;-64
2022/08/02 00:48:48;;;;;;;10.35;4.05;;;26.10;68.70;;;;;;5004192;28;20083;-62
2022/08/02 00:51:13;;;;;;;7.47;3.90;;;26.10;68.60;;;;;;5004657;28;20017;-63
2022/08/02 00:53:39;;;;;;;11.23;4.05;;;26.10;68.60;;;;;;5003949;28;20030;-65
2022/08/02 00:56:04;;;;;;;14.82;4.20;;;26.00;68.70;;;;;;4987961;28;20022;-62
2022/08/02 00:58:30;;;;;;;10.43;4.00;;;26.00;68.80;;;;;;4987412;28;20509;-66
2022/08/02 01:00:56;;;;;;;11.35;4.40;;;26.00;68.90;;;;;;5003357;28;20401;-62
2022/08/02 01:03:23;;;;;;;13.93;3.90;;;25.90;68.80;;;;;;5000234;28;20409;-62
2022/08/02 01:05:49;;;;;;;7.00;3.97;;;25.90;69.00;;;;;;5004054;28;20018;-62
2022/08/02 01:08:14;;;;;;;8.07;3.70;;;25.90;69.00;;;;;;5004503;28;20433;-62
2022/08/02 01:10:40;;;;;;;10.35;3.20;;;25.90;69.00;;;;;;5003181;28;20038;-62
2022/08/02 01:13:05;;;;;;;8.75;3.80;;;25.90;69.10;;;;;;5004829;28;20030;-62
2022/08/02 01:15:32;;;;;;;14.65;4.10;;;25.80;69.00;;;;;;5006581;28;20270;-62
2022/08/02 01:18:06;;;;;;;8.77;3.80;;;25.80;69.10;;;;;;4984591;28;20033;-62
2022/08/02 01:20:53;;;;;;;11.55;3.67;;;25.80;69.10;;;;;;4988102;28;20575;-62
2022/08/02 01:23:30;;;;;;;12.30;3.72;;;25.80;69.20;;;;;;5019017;28;20505;-62
2022/08/02 01:26:40;;;;;;;10.65;3.85;;;25.80;69.40;;;;;;5005745;28;20418;-62
2022/08/02 01:29:28;;;;;;;17.17;3.58;;;25.80;69.50;;;;;;4994139;28;20049;-62
2022/08/02 01:32:06;;;;;;;18.27;4.18;;;25.80;69.40;;;;;;4989724;28;20092;-62
2022/08/02 01:35:06;;;;;;;6.22;3.25;;;25.70;69.40;;;;;;4986543;28;20037;-62
2022/08/02 01:37:37;;;;;;;8.18;3.92;;;25.70;69.50;;;;;;4972824;28;20030;-62
2022/08/02 01:40:07;;;;;;;6.15;3.55;;;25.70;69.60;;;;;;4989017;28;20048;-62
2022/08/02 01:42:32;;;;;;;5.97;3.30;;;25.70;69.80;;;;;;4987241;28;20058;-61
2022/08/02 01:44:58;;;;;;;9.30;3.88;;;25.70;69.90;;;;;;5002615;28;20143;-62
2022/08/02 01:47:27;;;;;;;8.85;3.70;;;25.60;69.90;;;;;;4984705;28;20080;-61
2022/08/02 01:49:54;;;;;;;5.82;3.55;;;25.60;69.90;;;;;;4970376;28;20263;-62
2022/08/02 01:52:20;;;;;;;9.02;3.90;;;25.60;70.10;;;;;;4986944;28;20068;-61
2022/08/02 01:54:50;;;;;;;5.40;3.58;;;25.60;70.20;;;;;;4998993;28;20030;-62
2022/08/02 01:57:16;;;;;;;4.63;3.35;;;25.60;70.20;;;;;;4986971;28;20046;-61
2022/08/02 01:59:42;;;;;;;10.25;3.28;;;25.60;70.30;;;;;;4986932;28;20038;-61
2022/08/02 02:02:08;;;;;;;7.43;3.67;;;25.60;70.40;;;;;;5000705;28;20026;-62
2022/08/02 02:04:34;;;;;;;6.85;3.33;;;25.50;70.40;;;;;;4984172;28;20042;-62
2022/08/02 02:06:59;;;;;;;6.15;3.90;;;25.50;70.40;;;;;;4986830;28;20061;-62
2022/08/02 02:09:27;;;;;;;8.73;3.42;;;25.40;70.50;;;;;;4988354;28;20030;-61
2022/08/02 02:11:52;;;;;;;8.63;3.33;;;25.40;70.60;;;;;;5003119;28;20426;-61
2022/08/02 02:14:18;;;;;;;5.00;3.33;;;25.40;70.70;;;;;;4984547;28;20312;-61
2022/08/02 02:16:43;;;;;;;4.32;3.50;;;25.40;70.80;;;;;;4986662;28;20200;-62
2022/08/02 02:19:09;;;;;;;7.07;3.70;;;25.40;70.80;;;;;;5001131;28;20040;-62
2022/08/02 02:21:35;;;;;;;6.57;2.90;;;25.30;70.80;;;;;;5003790;28;20040;-62
2022/08/02 02:24:01;;;;;;;6.05;3.17;;;25.30;70.90;;;;;;4986581;28;20109;-61
2022/08/02 02:26:26;;;;;;;5.38;3.67;;;25.30;70.90;;;;;;4986081;28;20112;-62
2022/08/02 02:28:52;;;;;;;5.35;3.50;;;25.30;71.10;;;;;;5000949;28;20555;-61
2022/08/02 02:31:18;;;;;;;8.95;3.63;;;25.30;71.10;;;;;;4986997;28;20470;-62
2022/08/02 02:33:49;;;;;;;3.88;3.15;;;25.30;71.10;;;;;;4984787;28;20033;-64
2022/08/02 02:36:16;;;;;;;5.32;3.25;;;25.30;71.00;;;;;;4985859;28;20386;-61
2022/08/02 02:38:42;;;;;;;5.60;3.40;;;25.20;71.10;;;;;;4984543;28;20042;-62
2022/08/02 02:41:07;;;;;;;9.02;3.30;;;25.20;71.20;;;;;;4986282;28;20046;-62
2022/08/02 02:43:33;;;;;;;5.20;3.47;;;25.20;71.30;;;;;;4984840;28;20029;-62
2022/08/02 02:45:59;;;;;;;6.07;3.63;;;25.20;71.40;;;;;;5001731;28;20026;-62
2022/08/02 02:48:25;;;;;;;5.47;3.50;;;25.20;71.60;;;;;;4983473;28;20293;-61
2022/08/02 02:50:51;;;;;;;4.93;3.80;;;25.10;71.60;;;;;;5003872;28;20083;-61
2022/08/02 02:53:17;;;;;;;5.45;3.60;;;25.10;71.70;;;;;;5003927;28;20500;-62
2022/08/02 02:55:42;;;;;;;7.30;3.42;;;25.10;71.80;;;;;;5002158;28;20034;-62
2022/08/02 02:58:08;;;;;;;9.07;3.42;;;25.00;71.80;;;;;;4986354;28;20040;-62
2022/08/02 03:03:19;;;;;;;5.20;3.20;;;25.00;72.00;;;;;;4986508;28;20841;-61
2022/08/02 03:05:45;;;;;;;4.72;4.00;;;25.00;72.10;;;;;;5001042;28;20032;-62
2022/08/02 03:08:11;;;;;;;5.40;3.28;;;25.00;72.10;;;;;;5002545;28;20053;-62
2022/08/02 03:10:37;;;;;;;6.28;3.58;;;25.00;72.20;;;;;;5004415;28;20514;-62
2022/08/02 03:13:03;;;;;;;4.05;2.97;;;25.00;72.20;;;;;;5002859;28;20097;-61
2022/08/02 03:15:28;;;;;;;3.92;3.45;;;24.90;72.70;;;;;;4986179;28;20038;-62
2022/08/02 03:17:54;;;;;;;4.20;3.28;;;25.00;72.20;;;;;;4983305;28;20579;-61
2022/08/02 03:20:19;;;;;;;6.40;3.20;;;24.90;72.40;;;;;;5000790;28;20084;-61
2022/08/02 03:22:45;;;;;;;4.47;3.50;;;24.90;72.30;;;;;;4985369;28;20079;-61
2022/08/02 03:25:11;;;;;;;3.83;3.40;;;24.90;72.20;;;;;;5004226;28;20040;-61
2022/08/02 03:27:37;;;;;;;4.13;3.33;;;24.90;72.30;;;;;;5000561;28;20026;-61
2022/08/02 03:30:04;;;;;;;3.70;3.30;;;24.90;72.50;;;;;;4985118;28;20317;-61
2022/08/02 03:32:29;;;;;;;4.97;3.25;;;24.80;72.50;;;;;;4999970;28;20417;-62
2022/08/02 03:34:55;;;;;;;5.70;3.22;;;24.80;72.80;;;;;;5002347;28;20371;-61
2022/08/02 03:37:20;;;;;;;3.83;2.97;;;24.80;72.90;;;;;;5001420;28;20061;-62
2022/08/02 03:39:46;;;;;;;7.20;3.45;;;24.70;72.90;;;;;;5003176;28;20275;-62
2022/08/02 03:42:12;;;;;;;4.07;3.50;;;24.70;73.00;;;;;;5002240;28;20061;-62
2022/08/02 03:44:38;;;;;;;4.15;3.60;;;24.70;73.10;;;;;;4999905;28;20052;-62
2022/08/02 03:47:04;;;;;;;5.93;3.55;;;24.70;73.20;;;;;;4984810;28;20478;-61
2022/08/02 03:49:30;;;;;;;7.43;3.67;;;24.60;73.20;;;;;;4983338;28;20030;-62
2022/08/02 03:51:56;;;;;;;5.07;3.30;;;24.60;73.30;;;;;;4985878;28;20026;-62
2022/08/02 03:54:21;;;;;;;4.22;3.78;;;24.60;73.40;;;;;;4986168;28;20591;-62
2022/08/02 03:56:47;;;;;;;6.65;3.38;;;24.60;73.50;;;;;;4984509;28;20079;-61
2022/08/02 03:59:13;;;;;;;3.80;3.50;;;24.60;73.50;;;;;;4984729;28;20067;-62
2022/08/02 04:01:38;;;;;;;4.95;3.38;;;24.60;73.60;;;;;;5002201;28;20034;-62
2022/08/02 04:04:05;;;;;;;8.77;3.67;;;24.50;73.60;;;;;;4983530;28;20034;-61
2022/08/02 04:06:30;;;;;;;7.15;3.30;;;24.60;73.70;;;;;;5002478;28;20061;-61
2022/08/02 04:08:56;;;;;;;3.70;3.40;;;24.60;73.80;;;;;;4985227;28;20429;-61
2022/08/02 04:11:30;;;;;;;3.60;2.97;;;24.60;73.80;;;;;;5002535;28;20556;-62
2022/08/02 04:14:00;;;;;;;6.88;3.50;;;24.50;73.70;;;;;;5007125;28;20042;-62
2022/08/02 04:16:51;;;;;;;3.90;3.42;;;24.50;73.90;;;;;;4987001;28;20037;-60
2022/08/02 04:19:20;;;;;;;3.97;3.22;;;24.50;74.00;;;;;;5001289;28;20561;-61
2022/08/02 04:21:46;;;;;;;4.32;3.10;;;24.40;74.00;;;;;;4987425;28;20038;-66
2022/08/02 04:24:11;;;;;;;6.40;3.50;;;24.50;74.00;;;;;;4988636;28;20087;-61
2022/08/02 04:26:37;;;;;;;14.60;3.67;;;24.50;74.30;;;;;;4988652;28;20045;-62
2022/08/02 04:29:03;;;;;;;4.53;3.42;;;24.40;74.00;;;;;;4987391;28;20105;-61
2022/08/02 04:31:29;;;;;;;4.53;3.40;;;24.40;74.10;;;;;;5007390;28;20108;-62
2022/08/02 04:33:54;;;;;;;4.35;3.50;;;24.40;74.20;;;;;;5003791;28;20034;-62
2022/08/02 04:36:20;;;;;;;4.40;3.72;;;24.40;74.30;;;;;;4987919;28;20065;-61
2022/08/02 04:38:47;;;;;;;3.60;3.30;;;24.40;74.40;;;;;;4988851;28;20041;-62
2022/08/02 04:41:13;;;;;;;4.22;3.25;;;24.40;74.40;;;;;;4988911;28;20583;-62
2022/08/02 04:43:38;;;;;;;3.78;3.10;;;24.40;74.50;;;;;;5004838;28;20025;-61
2022/08/02 04:46:04;;;;;;;4.15;3.75;;;24.40;74.50;;;;;;5003770;28;20030;-61
2022/08/02 04:48:29;;;;;;;5.03;3.10;;;24.30;74.50;;;;;;4984754;28;20030;-62
2022/08/02 04:50:55;;;;;;;3.72;3.33;;;24.30;74.50;;;;;;5004553;28;20121;-61
2022/08/02 04:53:20;;;;;;;5.13;3.70;;;24.30;74.50;;;;;;5005797;28;20038;-61
2022/08/02 04:55:46;;;;;;;5.03;3.30;;;24.30;74.60;;;;;;5006011;28;20034;-61
2022/08/02 04:58:12;;;;;;;3.38;3.08;;;24.30;74.50;;;;;;5004619;28;20045;-61
2022/08/02 05:00:38;;;;;;;3.33;3.03;;;24.30;74.60;;;;;;4987828;28;20022;-61
2022/08/02 05:03:03;;;;;;;3.85;3.15;;;24.20;74.70;;;;;;4985155;28;20069;-61
2022/08/02 05:05:29;;;;;;;4.88;3.50;;;24.20;74.60;;;;;;5004139;28;20034;-61
2022/08/02 05:07:54;;;;;;;3.85;3.17;;;24.20;74.50;;;;;;5003245;28;20022;-61
2022/08/02 05:10:20;;;;;;;3.65;3.05;;;24.30;74.50;;;;;;5005234;28;20080;-61
2022/08/02 05:12:45;;;;;;;3.60;3.17;;;24.30;74.60;;;;;;5003971;28;20029;-61
2022/08/02 05:15:12;;;;;;;5.65;3.70;;;24.30;74.60;;;;;;5004602;28;20040;-62
2022/08/02 05:17:37;;;;;;;3.47;3.17;;;24.20;74.60;;;;;;4985204;28;20053;-61
2022/08/02 05:20:06;;;;;;;6.80;3.05;;;24.20;74.70;;;;;;5004080;28;20694;-60
2022/08/02 05:22:31;;;;;;;3.83;3.20;;;24.20;74.80;;;;;;5004991;28;20041;-61
2022/08/02 05:24:57;;;;;;;4.82;3.10;;;24.20;74.80;;;;;;5004614;28;20509;-62
2022/08/02 05:27:23;;;;;;;4.07;2.97;;;24.20;74.90;;;;;;5003098;28;20033;-60
2022/08/02 05:29:53;;;;;;;3.53;2.92;;;24.20;75.00;;;;;;5004089;28;20025;-62
2022/08/02 05:32:18;;;;;;;4.57;3.40;;;24.20;75.00;;;;;;4982660;28;20029;-61
2022/08/02 05:34:44;;;;;;;3.78;3.38;;;24.20;76.00;;;;;;4999371;28;20508;-61
2022/08/02 05:37:09;;;;;;;5.68;3.70;;;24.20;77.30;;;;;;5001256;28;20579;-61
2022/08/02 05:39:35;;;;;;;4.80;4.00;;;24.10;78.30;;;;;;5001147;28;20037;-61
2022/08/02 05:42:00;;;;;;;5.47;4.05;;;24.10;79.30;;;;;;5000946;28;20060;-61
2022/08/02 05:44:26;;;;;;;4.43;3.80;;;24.00;79.60;;;;;;4999173;28;20080;-60
2022/08/02 05:46:51;;;;;;;5.25;4.15;;;24.00;79.90;;;;;;4997517;28;20148;-61
2022/08/02 05:49:17;;;;;;;4.00;3.60;;;23.90;81.10;;;;;;5000559;28;20478;-61
2022/08/02 05:51:50;;;;;;;4.88;3.80;;;23.90;80.80;;;;;;5000638;28;20979;-61
2022/08/02 05:54:22;;;;;;;5.32;3.63;;;23.90;81.40;;;;;;4998695;28;20153;-61
2022/08/02 05:56:58;;;;;;;5.13;3.90;;;23.80;81.80;;;;;;5015063;28;20501;-61
2022/08/02 05:59:53;;;;;;;5.32;3.88;;;23.80;82.10;;;;;;4982287;28;20042;-61
2022/08/02 06:02:28;;;;;;;5.10;4.38;;;23.80;81.90;;;;;;4992012;28;20049;-61
2022/08/02 06:05:03;;;;;;;6.88;4.40;;;23.70;82.70;;;;;;4999803;28;20025;-61
2022/08/02 06:07:29;;;;;;;4.30;3.88;;;23.60;83.30;;;;;;4984100;28;20034;-61
2022/08/02 06:09:55;;;;;;;5.32;4.07;;;23.60;83.40;;;;;;4983435;28;20076;-61
2022/08/02 06:12:20;;;;;;;4.20;3.75;;;23.50;84.00;;;;;;5014033;28;20053;-61
2022/08/02 06:14:46;;;;;;;6.95;3.72;;;23.50;83.60;;;;;;4980827;28;20043;-61
2022/08/02 06:17:11;;;;;;;4.32;3.67;;;23.60;83.90;;;;;;4997619;28;20088;-61
2022/08/02 06:19:38;;;;;;;4.40;3.67;;;23.50;83.90;;;;;;4996983;28;20524;-61
2022/08/02 06:22:13;;;;;;;6.32;3.95;;;23.50;84.00;;;;;;4998313;28;20269;-61
2022/08/02 06:24:43;;;;;;;5.53;3.35;;;23.40;84.10;;;;;;4997796;28;20099;-62
2022/08/02 06:27:12;;;;;;;4.28;3.63;;;23.50;84.00;;;;;;4998977;28;20513;-61
2022/08/02 06:29:41;;;;;;;6.10;3.50;;;23.50;84.00;;;;;;4998029;28;20037;-61
2022/08/02 06:32:08;;;;;;;8.05;3.85;;;23.50;83.70;;;;;;4993473;28;21657;-62
2022/08/02 06:34:37;;;;;;;5.07;3.67;;;23.50;83.70;;;;;;4993493;28;20034;-61
2022/08/02 06:37:30;;;;;;;5.30;4.13;;;23.40;83.60;;;;;;4964747;28;20796;-61
2022/08/02 06:40:34;;;;;;;9.90;3.90;;;23.40;83.60;;;;;;4996760;28;20026;-62
2022/08/02 06:43:03;;;;;;;7.70;3.45;;;23.40;83.70;;;;;;5009963;28;20061;-61
2022/08/02 06:45:28;;;;;;;11.63;3.83;;;23.40;83.60;;;;;;4999507;28;20549;-61
2022/08/02 06:47:54;;;;;;;4.55;3.42;;;23.30;83.50;;;;;;4998500;28;20108;-61
2022/08/02 06:50:20;;;;;;;7.63;3.70;;;23.40;83.50;;;;;;4997470;28;20054;-61
2022/08/02 06:52:45;;;;;;;5.78;3.15;;;23.40;83.40;;;;;;5014000;28;20165;-61
2022/08/02 06:55:11;;;;;;;7.97;3.70;;;23.30;83.40;;;;;;5002454;28;20120;-61
2022/08/02 06:57:36;;;;;;;5.68;3.30;;;23.30;83.60;;;;;;4999618;28;20030;-61
2022/08/02 07:00:07;;;;;;;7.35;3.75;;;23.30;83.50;;;;;;4997193;28;20670;-61
2022/08/02 07:02:34;;;;;;;5.45;3.13;;;23.30;83.50;;;;;;4997733;28;20038;-62
2022/08/02 07:04:59;;;;;;;3.92;3.03;;;23.30;83.70;;;;;;5027432;28;20045;-61
2022/08/02 07:07:25;;;;;;;7.80;3.13;;;23.30;83.60;;;;;;4998223;28;20143;-61
2022/08/02 07:09:51;;;;;;;4.32;2.88;;;23.30;84.00;;;;;;4980774;28;20036;-61
2022/08/02 07:12:16;;;;;;;5.03;2.83;;;23.30;83.90;;;;;;4999238;28;20068;-61
2022/08/02 07:14:42;;;;;;;6.45;3.58;;;23.20;83.90;;;;;;4997075;28;20870;-61
2022/08/02 07:17:07;;;;;;;4.93;2.90;;;23.30;84.00;;;;;;4993347;28;20168;-61
2022/08/02 07:19:33;;;;;;;5.28;3.30;;;23.20;83.60;;;;;;4983893;28;20180;-61
2022/08/02 07:21:58;;;;;;;10.07;3.25;;;23.20;83.90;;;;;;5002897;28;20698;-61
2022/08/02 07:24:24;;;;;;;5.03;3.28;;;23.20;84.00;;;;;;5001384;28;20037;-61
2022/08/02 07:26:49;;;;;;;7.07;3.13;;;23.20;83.90;;;;;;5000640;28;20045;-61
2022/08/02 07:29:15;;;;;;;5.53;3.15;;;23.20;83.90;;;;;;4995572;28;20037;-61
2022/08/02 07:31:40;;;;;;;6.10;3.03;;;23.20;84.10;;;;;;4996889;28;20041;-61
2022/08/02 07:34:06;;;;;;;6.20;2.70;;;23.30;83.80;;;;;;4981715;28;20314;-61
2022/08/02 07:36:32;;;;;;;3.85;2.58;;;23.30;83.60;;;;;;4994321;28;20034;-61
2022/08/02 07:38:57;;;;;;;7.53;2.80;;;23.40;83.70;;;;;;4997017;28;20183;-61
2022/08/02 07:41:23;;;;;;;63.30;9.30;;;23.20;83.60;;;;;;4996585;28;20054;-61
2022/08/02 07:43:48;;;;;;;14.38;3.22;;;23.20;83.40;;;;;;4993707;28;20053;-61
2022/08/02 07:46:14;;;;;;;9.52;2.97;;;23.20;83.60;;;;;;4998572;28;20109;-61
2022/08/02 07:48:39;;;;;;;13.73;3.05;;;23.20;83.30;;;;;;4995120;28;20439;-62
2022/08/02 07:51:05;;;;;;;9.52;2.90;;;23.20;83.20;;;;;;5000078;28;20037;-61
2022/08/02 07:53:30;;;;;;;15.57;3.08;;;23.20;82.80;;;;;;4999796;28;20048;-61
2022/08/02 07:55:56;;;;;;;16.30;3.38;;;23.20;83.10;;;;;;4994480;28;20042;-61
2022/08/02 07:58:21;;;;;;;5.22;2.58;;;23.20;83.10;;;;;;4998517;28;20120;-61
2022/08/02 08:00:47;;;;;;;7.22;2.42;;;23.20;82.70;;;;;;4998335;28;20192;-61
2022/08/02 08:03:12;;;;;;;9.80;2.28;;;23.20;82.60;;;;;;4995947;28;20117;-61
2022/08/02 08:05:38;;;;;;;5.47;2.38;;;23.20;82.50;;;;;;4998530;28;20111;-61
2022/08/02 08:08:04;;;;;;;6.82;2.47;;;23.20;82.70;;;;;;4999676;28;20967;-61
2022/08/02 08:10:31;;;;;;;15.60;3.20;;;23.20;82.70;;;;;;4998187;28;20018;-61
2022/08/02 08:12:56;;;;;;;7.25;2.97;;;23.20;82.70;;;;;;5002175;28;20676;-61
2022/08/02 08:15:22;;;;;;;12.90;3.15;;;23.30;82.80;;;;;;4983632;28;20121;-61
2022/08/02 08:17:47;;;;;;;20.42;3.70;;;23.30;83.20;;;;;;4999036;28;20390;-61
2022/08/02 08:20:13;;;;;;;8.27;2.70;;;23.20;83.50;;;;;;5002941;28;20105;-61
2022/08/02 08:22:38;;;;;;;8.07;2.92;;;23.20;83.30;;;;;;5003018;28;20120;-62
2022/08/02 08:25:04;;;;;;;10.60;3.08;;;23.20;83.20;;;;;;5000391;28;20034;-61
2022/08/02 08:27:30;;;;;;;8.77;2.97;;;23.30;83.10;;;;;;5001061;28;20037;-61
2022/08/02 08:29:55;;;;;;;12.88;2.72;;;23.30;83.40;;;;;;5003516;28;20117;-61
2022/08/02 08:32:21;;;;;;;8.50;3.17;;;23.30;83.40;;;;;;5004356;28;20113;-61
2022/08/02 08:34:47;;;;;;;8.88;2.75;;;23.30;83.10;;;;;;5005353;28;20109;-61
2022/08/02 08:37:13;;;;;;;6.65;3.03;;;23.40;83.30;;;;;;4984685;28;20665;-61
2022/08/02 08:39:39;;;;;;;9.55;3.65;;;23.40;83.40;;;;;;5003768;28;20030;-61
2022/08/02 08:42:07;;;;;;;12.27;3.42;;;23.40;83.40;;;;;;4994654;28;20152;-61
2022/08/02 08:44:34;;;;;;;11.07;3.50;;;23.40;82.80;;;;;;5000521;28;20673;-61
2022/08/02 08:47:00;;;;;;;13.45;3.22;;;23.40;82.70;;;;;;4999215;28;20556;-61
2022/08/02 08:49:35;;;;;;;12.35;3.28;;;23.40;82.20;;;;;;4983373;28;20113;-61
2022/08/02 08:52:03;;;;;;;10.25;3.47;;;23.50;81.90;;;;;;4984321;28;20046;-61
2022/08/02 08:54:29;;;;;;;20.48;4.22;;;23.50;82.10;;;;;;4988065;28;20108;-61
2022/08/02 08:56:55;;;;;;;52.78;8.38;;;23.50;81.90;;;;;;4986292;28;20033;-61
2022/08/02 08:59:20;;;;;;;49.05;7.57;;;23.50;82.20;;;;;;4999001;28;20044;-61
2022/08/02 09:01:46;;;;;;;58.25;8.95;;;23.60;82.40;;;;;;4994748;28;20042;-61
2022/08/02 09:04:11;;;;;;;29.58;7.35;;;23.60;82.70;;;;;;4999211;28;20080;-61
2022/08/02 09:06:40;;;;;;;34.53;6.25;;;23.60;83.00;;;;;;4998412;28;20164;-61
2022/08/02 09:09:05;;;;;;;39.63;6.13;;;23.60;83.20;;;;;;4994256;28;20032;-61
2022/08/02 09:11:31;;;;;;;25.63;6.25;;;23.60;82.70;;;;;;5003469;28;20029;-61
2022/08/02 09:13:58;;;;;;;46.55;5.75;;;23.60;83.10;;;;;;5014790;28;20106;-61
2022/08/02 09:16:26;;;;;;;39.22;6.15;;;23.70;83.20;;;;;;5001625;28;20030;-61
2022/08/02 09:18:52;;;;;;;36.85;6.22;;;23.70;83.50;;;;;;5001816;28;20034;-61
2022/08/02 09:21:17;;;;;;;47.85;7.68;;;23.70;83.20;;;;;;4998249;28;20070;-61
2022/08/02 09:23:48;;;;;;;86.07;11.57;;;23.70;83.20;;;;;;5002805;28;20109;-60
2022/08/02 09:26:15;;;;;;;52.20;9.52;;;23.70;82.30;;;;;;4999937;28;20053;-61
2022/08/02 09:28:43;;;;;;;35.88;7.45;;;23.80;83.20;;;;;;5014626;28;20026;-61
2022/08/02 09:31:10;;;;;;;39.42;6.60;;;23.80;83.00;;;;;;4997450;28;20018;-62
2022/08/02 09:33:36;;;;;;;32.00;6.00;;;23.80;83.00;;;;;;4999205;28;20033;-60
2022/08/02 09:36:04;;;;;;;30.83;5.63;;;23.80;82.30;;;;;;4996093;28;20674;-61
2022/08/02 09:38:29;;;;;;;32.55;6.38;;;23.80;82.60;;;;;;5000940;28;20029;-61
2022/08/02 09:40:55;;;;;;;29.33;5.90;;;23.80;83.00;;;;;;4999745;28;20054;-61
2022/08/02 09:43:21;;;;;;;31.10;5.88;;;23.90;83.10;;;;;;4999551;28;20029;-60
2022/08/02 09:45:46;;;;;;;17.10;5.10;;;23.90;83.30;;;;;;4985843;28;20081;-61
2022/08/02 09:48:12;;;;;;;22.58;6.43;;;23.80;83.10;;;;;;4996452;28;20025;-61
2022/08/02 09:50:38;;;;;;;29.50;6.45;;;23.90;83.20;;;;;;5000440;28;20033;-61
2022/08/02 09:53:04;;;;;;;21.35;5.45;;;24.00;83.20;;;;;;5000260;28;20033;-61
2022/08/02 09:55:30;;;;;;;29.10;5.28;;;24.00;83.10;;;;;;4981963;28;20044;-61
2022/08/02 09:57:55;;;;;;;36.92;7.07;;;24.00;82.70;;;;;;4999687;28;20084;-61
2022/08/02 10:00:21;;;;;;;83.45;10.35;;;24.10;82.60;;;;;;5000404;28;20033;-61
2022/08/02 10:03:06;;;;;;;44.40;6.65;;;24.10;82.40;;;;;;4997817;28;20060;-61
2022/08/02 10:05:51;;;;;;;38.92;7.18;;;24.20;82.20;;;;;;5000431;28;20111;-61
2022/08/02 10:08:16;;;;;;;48.90;7.27;;;24.20;81.80;;;;;;4998778;28;20018;-61
2022/08/02 10:10:42;;;;;;;46.65;7.72;;;24.20;81.80;;;;;;4997508;28;20681;-60
2022/08/02 10:13:08;;;;;;;40.50;6.97;;;24.30;81.60;;;;;;4998120;28;20669;-61
2022/08/02 10:15:35;;;;;;;28.30;7.00;;;24.30;81.30;;;;;;4982372;28;20041;-60
2022/08/02 10:18:00;;;;;;;34.58;6.50;;;24.40;81.30;;;;;;4994654;28;20120;-64
2022/08/02 10:20:26;;;;;;;21.88;6.10;;;24.40;81.10;;;;;;4994627;28;20083;-61
2022/08/02 10:22:51;;;;;;;36.80;6.15;;;24.50;80.60;;;;;;4961753;28;20119;-60
2022/08/02 10:25:17;;;;;;;27.90;5.55;;;24.50;80.40;;;;;;4982168;28;20417;-61
2022/08/02 10:27:42;;;;;;;38.35;5.40;;;24.50;80.10;;;;;;4981824;28;20076;-61
2022/08/02 10:30:08;;;;;;;33.47;5.45;;;24.60;79.80;;;;;;4998683;28;20117;-60
2022/08/02 10:32:38;;;;;;;19.08;4.55;;;24.60;79.50;;;;;;4998680;28;20852;-61
2022/08/02 10:35:09;;;;;;;22.48;5.43;;;24.60;79.10;;;;;;4995635;28;20112;-61
2022/08/02 10:37:38;;;;;;;40.38;7.28;;;24.70;79.30;;;;;;4992494;28;20130;-61
2022/08/02 10:40:04;;;;;;;54.88;6.80;;;24.70;78.80;;;;;;5010495;28;20036;-60
2022/08/02 10:42:59;;;;;;;21.10;5.28;;;24.80;78.50;;;;;;4994126;28;20688;-60
2022/08/02 10:45:24;;;;;;;18.48;4.95;;;24.80;78.10;;;;;;5000272;28;20381;-61
2022/08/02 10:48:04;;;;;;;25.15;4.97;;;24.80;77.80;;;;;;4997659;28;20014;-61
2022/08/02 10:50:51;;;;;;;19.02;4.10;;;24.90;77.80;;;;;;5000367;28;20038;-60
2022/08/02 10:53:37;;;;;;;20.33;4.55;;;24.90;77.40;;;;;;5027490;28;20030;-61
2022/08/02 10:56:03;;;;;;;16.63;4.53;;;24.90;77.20;;;;;;5029586;28;20045;-61
2022/08/02 10:58:33;;;;;;;32.78;5.22;;;25.00;77.00;;;;;;4998057;28;20104;-61
2022/08/02 11:01:28;;;;;;;16.30;4.95;;;25.10;76.70;;;;;;4994251;28;20030;-61
2022/08/02 11:03:57;;;;;;;34.95;5.63;;;25.20;76.40;;;;;;4989269;28;20049;-61
2022/08/02 11:06:22;;;;;;;25.17;4.55;;;25.30;76.20;;;;;;5027826;28;20034;-61
2022/08/02 11:08:47;;;;;;;20.52;4.50;;;25.30;75.80;;;;;;4995352;28;20034;-61
2022/08/02 11:11:17;;;;;;;19.80;4.57;;;25.40;75.30;;;;;;4995040;28;20108;-61
2022/08/02 11:14:05;;;;;;;18.00;4.88;;;25.40;75.00;;;;;;4991013;28;20029;-60
2022/08/02 11:16:56;;;;;;;25.27;4.78;;;25.50;74.40;;;;;;4994828;28;20026;-61
2022/08/02 11:19:28;;;;;;;14.68;4.75;;;25.60;74.10;;;;;;4995124;28;20030;-61
2022/08/02 11:22:08;;;;;;;21.42;4.28;;;25.70;73.60;;;;;;4995675;28;20125;-60
2022/08/02 11:24:43;;;;;;;22.55;4.85;;;25.70;73.10;;;;;;4980684;28;20040;-61
2022/08/02 11:27:17;;;;;;;21.10;4.27;;;25.80;72.90;;;;;;4996155;28;20228;-61
2022/08/02 11:29:44;;;;;;;16.05;3.92;;;25.90;71.80;;;;;;4994891;28;20076;-61
2022/08/02 11:32:21;;;;;;;25.92;4.32;;;26.00;71.30;;;;;;4994781;28;20538;-61
2022/08/02 11:34:52;;;;;;;21.67;4.40;;;26.10;70.90;;;;;;4999656;28;20120;-61
2022/08/02 11:37:42;;;;;;;13.88;4.00;;;26.20;70.40;;;;;;4982302;28;20025;-61
2022/08/02 11:40:13;;;;;;;14.30;3.67;;;26.30;70.00;;;;;;4998666;28;20226;-60
2022/08/02 11:42:43;;;;;;;13.20;3.38;;;26.40;69.70;;;;;;5001376;28;20505;-61
2022/08/02 11:45:09;;;;;;;14.57;3.33;;;26.40;69.10;;;;;;4996852;28;20061;-60
2022/08/02 11:47:44;;;;;;;13.35;3.13;;;26.50;68.30;;;;;;4998459;28;20117;-61
2022/08/02 11:50:10;;;;;;;15.70;3.30;;;26.60;67.70;;;;;;5016074;28;20025;-61
2022/08/02 11:52:35;;;;;;;10.57;3.50;;;26.60;67.40;;;;;;5001955;28;20037;-61
2022/08/02 11:55:01;;;;;;;11.07;2.95;;;26.70;67.20;;;;;;4997855;28;20030;-61
2022/08/02 11:57:27;;;;;;;7.22;2.65;;;26.80;67.30;;;;;;4999333;28;20476;-61
2022/08/02 11:59:53;;;;;;;6.80;2.60;;;26.90;67.10;;;;;;5001170;28;20112;-61
2022/08/02 12:02:26;;;;;;;13.55;3.08;;;26.90;66.90;;;;;;4999817;28;20040;-61
2022/08/02 12:04:59;;;;;;;7.80;3.10;;;27.00;66.80;;;;;;4997926;28;20037;-60
2022/08/02 12:07:29;;;;;;;6.53;2.78;;;27.00;66.50;;;;;;5013391;28;20033;-61
2022/08/02 12:10:09;;;;;;;11.70;3.20;;;27.20;66.60;;;;;;4964328;28;20548;-61
2022/08/02 12:12:48;;;;;;;13.55;2.95;;;27.20;66.50;;;;;;4995033;28;21437;-61
2022/08/02 12:15:14;;;;;;;9.30;2.92;;;27.30;65.70;;;;;;5002187;28;20668;-61
2022/08/02 12:20:34;;;;;;;7.55;2.30;;;27.40;64.80;;;;;;5005047;28;20179;-61
2022/08/02 12:23:01;;;;;;;12.90;3.38;;;27.50;64.80;;;;;;5017467;28;20049;-61
2022/08/02 12:25:30;;;;;;;13.45;2.97;;;27.60;64.30;;;;;;4981056;28;20370;-61
2022/08/02 12:28:17;;;;;;;13.35;3.35;;;27.70;63.40;;;;;;5003536;28;20053;-61
2022/08/02 12:30:56;;;;;;;19.67;3.90;;;27.60;62.70;;;;;;5001926;28;20506;-61
2022/08/02 12:33:23;;;;;;;19.60;3.88;;;27.80;62.80;;;;;;5001213;28;20048;-61
2022/08/02 12:35:48;;;;;;;11.43;2.70;;;27.80;62.20;;;;;;5004298;28;20033;-61
2022/08/02 12:38:14;;;;;;;13.82;3.42;;;27.90;62.10;;;;;;5002082;28;20026;-61
2022/08/02 12:40:40;;;;;;;13.82;3.08;;;27.90;61.60;;;;;;5001485;28;20038;-61
2022/08/02 12:43:06;;;;;;;7.95;3.10;;;28.00;60.50;;;;;;5002618;28;20125;-61
2022/08/02 12:45:47;;;;;;;18.25;3.00;;;28.00;60.20;;;;;;5003354;28;20116;-61
2022/08/02 12:48:12;;;;;;;26.27;3.63;;;28.00;60.50;;;;;;5002182;28;20056;-61
2022/08/02 12:50:38;;;;;;;15.35;3.50;;;28.10;60.70;;;;;;5000341;28;20022;-60
2022/08/02 12:53:04;;;;;;;13.95;3.25;;;28.20;60.60;;;;;;5002754;28;20026;-61